sensor_id;sensor_type;location;lat;lon;timestamp;pressure;altitude;pressure_sealevel;temperature
37452;BMP280;23314;51.114;6.900;2023-03-01T00:01:47;102661.63;;;-0.34
37452;BMP280;23314;51.114;6.900;2023-03-01T00:04:12;102662.97;;;-0.36
37452;BMP280;23314;51.114;6.900;2023-03-01T00:06:37;102660.63;;;-0.38
37452;BMP280;23314;51.114;6.900;2023-03-01T00:09:04;102656.69;;;-0.40
37452;BMP280;23314;51.114;6.900;2023-03-01T00:11:30;102664.06;;;-0.42
37452;BMP280;23314;51.114;6.900;2023-03-01T00:13:58;102653.84;;;-0.44
37452;BMP280;23314;51.114;6.900;2023-03-01T00:16:29;102662.50;;;-0.43
37452;BMP280;23314;51.114;6.900;2023-03-01T00:18:56;102663.03;;;-0.47
37452;BMP280;23314;51.114;6.900;2023-03-01T00:21:22;102654.38;;;-0.47
37452;BMP280;23314;51.114;6.900;2023-03-01T00:23:48;102660.16;;;-0.50
37452;BMP280;23314;51.114;6.900;2023-03-01T00:26:18;102661.50;;;-0.53
37452;BMP280;23314;51.114;6.900;2023-03-01T00:28:44;102656.81;;;-0.56
37452;BMP280;23314;51.114;6.900;2023-03-01T00:31:12;102658.13;;;-0.58
37452;BMP280;23314;51.114;6.900;2023-03-01T00:33:38;102656.06;;;-0.62
37452;BMP280;23314;51.114;6.900;2023-03-01T00:36:05;102656.59;;;-0.65
37452;BMP280;23314;51.114;6.900;2023-03-01T00:38:34;102654.22;;;-0.66
37452;BMP280;23314;51.114;6.900;2023-03-01T00:41:04;102653.19;;;-0.65
37452;BMP280;23314;51.114;6.900;2023-03-01T00:43:30;102649.78;;;-0.66
37452;BMP280;23314;51.114;6.900;2023-03-01T00:45:56;102643.22;;;-0.68
37452;BMP280;23314;51.114;6.900;2023-03-01T00:48:21;102641.94;;;-0.71
37452;BMP280;23314;51.114;6.900;2023-03-01T00:50:46;102646.66;;;-0.68
37452;BMP280;23314;51.114;6.900;2023-03-01T00:53:11;102641.41;;;-0.68
37452;BMP280;23314;51.114;6.900;2023-03-01T00:55:37;102634.59;;;-0.69
37452;BMP280;23314;51.114;6.900;2023-03-01T00:58:02;102630.66;;;-0.71
37452;BMP280;23314;51.114;6.900;2023-03-01T01:00:27;102643.75;;;-0.71
37452;BMP280;23314;51.114;6.900;2023-03-01T01:02:53;102633.84;;;-0.74
37452;BMP280;23314;51.114;6.900;2023-03-01T01:05:18;102635.94;;;-0.77
37452;BMP280;23314;51.114;6.900;2023-03-01T01:07:46;102629.91;;;-0.77
37452;BMP280;23314;51.114;6.900;2023-03-01T01:10:11;102633.06;;;-0.80
37452;BMP280;23314;51.114;6.900;2023-03-01T01:12:42;102628.38;;;-0.83
37452;BMP280;23314;51.114;6.900;2023-03-01T01:15:08;102624.47;;;-0.86
37452;BMP280;23314;51.114;6.900;2023-03-01T01:17:33;102618.69;;;-0.88
37452;BMP280;23314;51.114;6.900;2023-03-01T01:19:58;102618.47;;;-0.92
37452;BMP280;23314;51.114;6.900;2023-03-01T01:22:24;102614.81;;;-0.96
37452;BMP280;23314;51.114;6.900;2023-03-01T01:24:49;102608.53;;;-1.00
37452;BMP280;23314;51.114;6.900;2023-03-01T01:27:14;102608.84;;;-1.07
37452;BMP280;23314;51.114;6.900;2023-03-01T01:29:40;102608.34;;;-1.14
37452;BMP280;23314;51.114;6.900;2023-03-01T01:32:07;102609.66;;;-1.16
37452;BMP280;23314;51.114;6.900;2023-03-01T01:34:32;102606.25;;;-1.17
37452;BMP280;23314;51.114;6.900;2023-03-01T01:36:57;102596.56;;;-1.16
37452;BMP280;23314;51.114;6.900;2023-03-01T01:39:27;102586.63;;;-1.14
37452;BMP280;23314;51.114;6.900;2023-03-01T01:41:53;102582.94;;;-1.13
37452;BMP280;23314;51.114;6.900;2023-03-01T01:44:21;102579.28;;;-1.12
37452;BMP280;23314;51.114;6.900;2023-03-01T01:49:27;102577.16;;;-1.10
37452;BMP280;23314;51.114;6.900;2023-03-01T01:52:04;102575.09;;;-1.13
37452;BMP280;23314;51.114;6.900;2023-03-01T01:57:26;102561.22;;;-1.19
37452;BMP280;23314;51.114;6.900;2023-03-01T01:59:54;102553.63;;;-1.21
37452;BMP280;23314;51.114;6.900;2023-03-01T02:02:22;102564.38;;;-1.22
37452;BMP280;23314;51.114;6.900;2023-03-01T02:04:50;102556.78;;;-1.24
37452;BMP280;23314;51.114;6.900;2023-03-01T02:07:20;102555.50;;;-1.26
37452;BMP280;23314;51.114;6.900;2023-03-01T02:09:48;102557.59;;;-1.28
37452;BMP280;23314;51.114;6.900;2023-03-01T02:12:16;102554.72;;;-1.32
37452;BMP280;23314;51.114;6.900;2023-03-01T02:14:42;102558.91;;;-1.31
37452;BMP280;23314;51.114;6.900;2023-03-01T02:17:08;102555.53;;;-1.31
37452;BMP280;23314;51.114;6.900;2023-03-01T02:22:33;102555.25;;;-1.40
37452;BMP280;23314;51.114;6.900;2023-03-01T02:30:33;102560.28;;;-1.49
37452;BMP280;23314;51.114;6.900;2023-03-01T02:33:00;102570.22;;;-1.51
37452;BMP280;23314;51.114;6.900;2023-03-01T02:35:37;102559.75;;;-1.51
37452;BMP280;23314;51.114;6.900;2023-03-01T02:38:06;102565.00;;;-1.51
37452;BMP280;23314;51.114;6.900;2023-03-01T02:40:34;102556.09;;;-1.50
37452;BMP280;23314;51.114;6.900;2023-03-01T02:43:01;102554.75;;;-1.47
37452;BMP280;23314;51.114;6.900;2023-03-01T02:45:27;102554.25;;;-1.50
37452;BMP280;23314;51.114;6.900;2023-03-01T02:47:54;102548.22;;;-1.50
37452;BMP280;23314;51.114;6.900;2023-03-01T02:50:44;102551.38;;;-1.53
37452;BMP280;23314;51.114;6.900;2023-03-01T02:53:19;102552.69;;;-1.56
37452;BMP280;23314;51.114;6.900;2023-03-01T02:55:47;102552.69;;;-1.56
37452;BMP280;23314;51.114;6.900;2023-03-01T02:58:13;102551.63;;;-1.55
37452;BMP280;23314;51.114;6.900;2023-03-01T03:00:40;102540.13;;;-1.54
37452;BMP280;23314;51.114;6.900;2023-03-01T03:03:19;102539.34;;;-1.54
37452;BMP280;23314;51.114;6.900;2023-03-01T03:05:47;102530.16;;;-1.52
37452;BMP280;23314;51.114;6.900;2023-03-01T03:08:13;102527.03;;;-1.54
37452;BMP280;23314;51.114;6.900;2023-03-01T03:10:41;102532.00;;;-1.52
37452;BMP280;23314;51.114;6.900;2023-03-01T03:13:14;102532.53;;;-1.55
37452;BMP280;23314;51.114;6.900;2023-03-01T03:15:41;102536.50;;;-1.58
37452;BMP280;23314;51.114;6.900;2023-03-01T03:18:10;102536.50;;;-1.58
37452;BMP280;23314;51.114;6.900;2023-03-01T03:20:36;102532.56;;;-1.60
37452;BMP280;23314;51.114;6.900;2023-03-01T03:23:02;102536.75;;;-1.59
37452;BMP280;23314;51.114;6.900;2023-03-01T03:25:28;102527.31;;;-1.60
37452;BMP280;23314;51.114;6.900;2023-03-01T03:27:55;102524.44;;;-1.59
37452;BMP280;23314;51.114;6.900;2023-03-01T03:30:23;102523.41;;;-1.58
37452;BMP280;23314;51.114;6.900;2023-03-01T03:32:49;102516.84;;;-1.55
37452;BMP280;23314;51.114;6.900;2023-03-01T03:35:24;102515.00;;;-1.55
37452;BMP280;23314;51.114;6.900;2023-03-01T03:37:51;102523.38;;;-1.53
37452;BMP280;23314;51.114;6.900;2023-03-01T03:40:38;102516.31;;;-1.52
37452;BMP280;23314;51.114;6.900;2023-03-01T03:43:07;102516.81;;;-1.50
37452;BMP280;23314;51.114;6.900;2023-03-01T03:45:32;102531.19;;;-1.47
37452;BMP280;23314;51.114;6.900;2023-03-01T03:47:58;102521.53;;;-1.47
37452;BMP280;23314;51.114;6.900;2023-03-01T03:50:24;102518.63;;;-1.45
37452;BMP280;23314;51.114;6.900;2023-03-01T03:52:49;102515.25;;;-1.46
37452;BMP280;23314;51.114;6.900;2023-03-01T03:55:14;102516.53;;;-1.48
37452;BMP280;23314;51.114;6.900;2023-03-01T03:57:45;102514.47;;;-1.52
37452;BMP280;23314;51.114;6.900;2023-03-01T04:00:18;102507.13;;;-1.55
37452;BMP280;23314;51.114;6.900;2023-03-01T04:02:44;102502.19;;;-1.56
37452;BMP280;23314;51.114;6.900;2023-03-01T04:05:12;102496.19;;;-1.57
37452;BMP280;23314;51.114;6.900;2023-03-01T04:07:38;102500.09;;;-1.59
37452;BMP280;23314;51.114;6.900;2023-03-01T04:10:12;102495.91;;;-1.60
37452;BMP280;23314;51.114;6.900;2023-03-01T04:12:38;102498.00;;;-1.62
37452;BMP280;23314;51.114;6.900;2023-03-01T04:15:05;102496.72;;;-1.65
37452;BMP280;23314;51.114;6.900;2023-03-01T04:17:41;102491.50;;;-1.70
37452;BMP280;23314;51.114;6.900;2023-03-01T04:20:12;102485.25;;;-1.74
37452;BMP280;23314;51.114;6.900;2023-03-01T04:22:38;102489.94;;;-1.76
37452;BMP280;23314;51.114;6.900;2023-03-01T04:25:04;102487.34;;;-1.76
37452;BMP280;23314;51.114;6.900;2023-03-01T04:27:33;102488.38;;;-1.77
37452;BMP280;23314;51.114;6.900;2023-03-01T04:29:58;102485.75;;;-1.77
37452;BMP280;23314;51.114;6.900;2023-03-01T04:32:23;102489.44;;;-1.78
37452;BMP280;23314;51.114;6.900;2023-03-01T04:34:49;102482.63;;;-1.80
37452;BMP280;23314;51.114;6.900;2023-03-01T04:37:14;102480.28;;;-1.81
37452;BMP280;23314;51.114;6.900;2023-03-01T04:39:41;102488.66;;;-1.79
37452;BMP280;23314;51.114;6.900;2023-03-01T04:42:14;102470.59;;;-1.81
37452;BMP280;23314;51.114;6.900;2023-03-01T04:44:40;102483.69;;;-1.81
37452;BMP280;23314;51.114;6.900;2023-03-01T04:47:05;102479.75;;;-1.78
37452;BMP280;23314;51.114;6.900;2023-03-01T04:49:31;102474.00;;;-1.80
37452;BMP280;23314;51.114;6.900;2023-03-01T04:51:56;102477.91;;;-1.77
37452;BMP280;23314;51.114;6.900;2023-03-01T04:54:27;102473.47;;;-1.77
37452;BMP280;23314;51.114;6.900;2023-03-01T04:56:53;102476.09;;;-1.77
37452;BMP280;23314;51.114;6.900;2023-03-01T04:59:18;102472.69;;;-1.77
37452;BMP280;23314;51.114;6.900;2023-03-01T05:01:48;102472.16;;;-1.80
37452;BMP280;23314;51.114;6.900;2023-03-01T05:04:13;102471.16;;;-1.84
37452;BMP280;23314;51.114;6.900;2023-03-01T05:06:38;102473.25;;;-1.86
37452;BMP280;23314;51.114;6.900;2023-03-01T05:09:05;102475.88;;;-1.86
37452;BMP280;23314;51.114;6.900;2023-03-01T05:11:30;102468.53;;;-1.84
37452;BMP280;23314;51.114;6.900;2023-03-01T05:13:58;102472.22;;;-1.85
37452;BMP280;23314;51.114;6.900;2023-03-01T05:16:24;102470.88;;;-1.87
37452;BMP280;23314;51.114;6.900;2023-03-01T05:18:49;102466.72;;;-1.88
37452;BMP280;23314;51.114;6.900;2023-03-01T05:21:16;102464.34;;;-1.85
37452;BMP280;23314;51.114;6.900;2023-03-01T05:23:41;102470.34;;;-1.84
37452;BMP280;23314;51.114;6.900;2023-03-01T05:26:08;102467.75;;;-1.84
37452;BMP280;23314;51.114;6.900;2023-03-01T05:28:34;102476.13;;;-1.82
37452;BMP280;23314;51.114;6.900;2023-03-01T05:30:59;102476.41;;;-1.84
37452;BMP280;23314;51.114;6.900;2023-03-01T05:33:25;102476.13;;;-1.82
37452;BMP280;23314;51.114;6.900;2023-03-01T05:35:51;102475.06;;;-1.81
37452;BMP280;23314;51.114;6.900;2023-03-01T05:38:18;102463.31;;;-1.84
37452;BMP280;23314;51.114;6.900;2023-03-01T05:40:47;102467.22;;;-1.86
37452;BMP280;23314;51.114;6.900;2023-03-01T05:43:14;102456.53;;;-1.90
37452;BMP280;23314;51.114;6.900;2023-03-01T05:45:41;102449.94;;;-1.92
37452;BMP280;23314;51.114;6.900;2023-03-01T05:48:07;102462.25;;;-1.93
37452;BMP280;23314;51.114;6.900;2023-03-01T05:50:36;102454.94;;;-1.96
37452;BMP280;23314;51.114;6.900;2023-03-01T05:53:03;102448.66;;;-2.00
37452;BMP280;23314;51.114;6.900;2023-03-01T05:55:31;102448.66;;;-2.00
37452;BMP280;23314;51.114;6.900;2023-03-01T05:58:10;102454.19;;;-2.02
37452;BMP280;23314;51.114;6.900;2023-03-01T06:00:35;102454.72;;;-2.05
37452;BMP280;23314;51.114;6.900;2023-03-01T06:03:01;102456.81;;;-2.07
37452;BMP280;23314;51.114;6.900;2023-03-01T06:05:27;102455.75;;;-2.11
37452;BMP280;23314;51.114;6.900;2023-03-01T06:07:53;102459.69;;;-2.14
37452;BMP280;23314;51.114;6.900;2023-03-01T06:10:20;102467.81;;;-2.20
37452;BMP280;23314;51.114;6.900;2023-03-01T06:12:45;102463.13;;;-2.23
37452;BMP280;23314;51.114;6.900;2023-03-01T06:15:15;102456.56;;;-2.26
37452;BMP280;23314;51.114;6.900;2023-03-01T06:17:43;102457.13;;;-2.29
37452;BMP280;23314;51.114;6.900;2023-03-01T06:20:13;102459.22;;;-2.31
37452;BMP280;23314;51.114;6.900;2023-03-01T06:22:40;102461.31;;;-2.33
37452;BMP280;23314;51.114;6.900;2023-03-01T06:25:06;102470.16;;;-2.34
37452;BMP280;23314;51.114;6.900;2023-03-01T06:27:32;102467.56;;;-2.34
37452;BMP280;23314;51.114;6.900;2023-03-01T06:29:57;102464.16;;;-2.35
37452;BMP280;23314;51.114;6.900;2023-03-01T06:32:23;102467.03;;;-2.36
37452;BMP280;23314;51.114;6.900;2023-03-01T06:34:49;102461.31;;;-2.33
37452;BMP280;23314;51.114;6.900;2023-03-01T06:37:14;102457.38;;;-2.31
37452;BMP280;23314;51.114;6.900;2023-03-01T06:39:40;102456.84;;;-2.28
37452;BMP280;23314;51.114;6.900;2023-03-01T06:42:05;102466.78;;;-2.25
37452;BMP280;23314;51.114;6.900;2023-03-01T06:44:30;102470.44;;;-2.20
37452;BMP280;23314;51.114;6.900;2023-03-01T06:46:56;102458.38;;;-2.16
37452;BMP280;23314;51.114;6.900;2023-03-01T06:49:21;102452.09;;;-2.10
37452;BMP280;23314;51.114;6.900;2023-03-01T06:51:46;102451.56;;;-2.07
37452;BMP280;23314;51.114;6.900;2023-03-01T06:54:12;102453.13;;;-2.01
37452;BMP280;23314;51.114;6.900;2023-03-01T06:56:37;102457.53;;;-1.91
37452;BMP280;23314;51.114;6.900;2023-03-01T06:59:03;102452.56;;;-1.82
37452;BMP280;23314;51.114;6.900;2023-03-01T07:01:29;102456.72;;;-1.71
37452;BMP280;23314;51.114;6.900;2023-03-01T07:03:55;102449.31;;;-1.58
37452;BMP280;23314;51.114;6.900;2023-03-01T07:06:21;102456.59;;;-1.45
37452;BMP280;23314;51.114;6.900;2023-03-01T07:08:46;102453.16;;;-1.35
37452;BMP280;23314;51.114;6.900;2023-03-01T07:11:12;102443.94;;;-1.22
37452;BMP280;23314;51.114;6.900;2023-03-01T07:13:38;102446.44;;;-1.07
37452;BMP280;23314;51.114;6.900;2023-03-01T07:16:03;102445.81;;;-0.93
37452;BMP280;23314;51.114;6.900;2023-03-01T07:18:29;102442.28;;;-0.78
37452;BMP280;23314;51.114;6.900;2023-03-01T07:20:54;102441.91;;;-0.66
37452;BMP280;23314;51.114;6.900;2023-03-01T07:23:19;102442.34;;;-0.54
37452;BMP280;23314;51.114;6.900;2023-03-01T07:25:51;102440.13;;;-0.41
37452;BMP280;23314;51.114;6.900;2023-03-01T07:28:17;102433.13;;;-0.22
37452;BMP280;23314;51.114;6.900;2023-03-01T07:30:42;102447.25;;;0.07
37452;BMP280;23314;51.114;6.900;2023-03-01T07:33:07;102443.22;;;0.14
37452;BMP280;23314;51.114;6.900;2023-03-01T07:35:33;102438.84;;;0.29
37452;BMP280;23314;51.114;6.900;2023-03-01T07:37:58;102444.56;;;0.50
37452;BMP280;23314;51.114;6.900;2023-03-01T07:40:23;102454.22;;;0.55
37452;BMP280;23314;51.114;6.900;2023-03-01T07:42:49;102446.41;;;0.69
37452;BMP280;23314;51.114;6.900;2023-03-01T07:45:14;102453.72;;;0.91
37452;BMP280;23314;51.114;6.900;2023-03-01T07:47:39;102452.34;;;0.94
37452;BMP280;23314;51.114;6.900;2023-03-01T07:50:05;102450.41;;;0.99
37452;BMP280;23314;51.114;6.900;2023-03-01T07:52:31;102453.78;;;1.05
37452;BMP280;23314;51.114;6.900;2023-03-01T07:54:56;102452.81;;;1.15
37452;BMP280;23314;51.114;6.900;2023-03-01T07:57:22;102452.94;;;1.24
37452;BMP280;23314;51.114;6.900;2023-03-01T07:59:47;102457.25;;;1.33
37452;BMP280;23314;51.114;6.900;2023-03-01T08:02:13;102452.88;;;1.43
37452;BMP280;23314;51.114;6.900;2023-03-01T08:04:40;102450.34;;;1.51
37452;BMP280;23314;51.114;6.900;2023-03-01T08:07:05;102452.00;;;1.61
37452;BMP280;23314;51.114;6.900;2023-03-01T08:09:31;102443.91;;;1.72
37452;BMP280;23314;51.114;6.900;2023-03-01T08:11:57;102435.84;;;1.82
37452;BMP280;23314;51.114;6.900;2023-03-01T08:14:24;102436.38;;;1.93
37452;BMP280;23314;51.114;6.900;2023-03-01T08:16:49;102436.19;;;2.03
37452;BMP280;23314;51.114;6.900;2023-03-01T08:19:15;102437.53;;;2.15
37452;BMP280;23314;51.114;6.900;2023-03-01T08:21:40;102444.91;;;2.26
37452;BMP280;23314;51.114;6.900;2023-03-01T08:24:06;102445.94;;;2.39
37452;BMP280;23314;51.114;6.900;2023-03-01T08:26:33;102437.81;;;2.50
37452;BMP280;23314;51.114;6.900;2023-03-01T08:28:59;102446.28;;;2.61
37452;BMP280;23314;51.114;6.900;2023-03-01T08:31:31;102446.19;;;2.75
37452;BMP280;23314;51.114;6.900;2023-03-01T08:34:00;102446.75;;;2.85
37452;BMP280;23314;51.114;6.900;2023-03-01T08:36:27;102439.06;;;2.98
37452;BMP280;23314;51.114;6.900;2023-03-01T08:38:53;102444.81;;;3.09
37452;BMP280;23314;51.114;6.900;2023-03-01T08:41:19;102446.75;;;3.17
37452;BMP280;23314;51.114;6.900;2023-03-01T08:43:45;102445.72;;;3.27
37452;BMP280;23314;51.114;6.900;2023-03-01T08:46:11;102439.84;;;3.39
37452;BMP280;23314;51.114;6.900;2023-03-01T08:48:36;102438.03;;;3.48
37452;BMP280;23314;51.114;6.900;2023-03-01T08:51:16;102434.31;;;3.58
37452;BMP280;23314;51.114;6.900;2023-03-01T08:53:42;102438.53;;;3.68
37452;BMP280;23314;51.114;6.900;2023-03-01T08:56:09;102444.31;;;3.78
37452;BMP280;23314;51.114;6.900;2023-03-01T08:58:34;102430.94;;;3.84
37452;BMP280;23314;51.114;6.900;2023-03-01T09:01:00;102435.78;;;3.90
37452;BMP280;23314;51.114;6.900;2023-03-01T09:03:25;102433.00;;;3.95
37452;BMP280;23314;51.114;6.900;2023-03-01T09:05:52;102438.25;;;4.04
37452;BMP280;23314;51.114;6.900;2023-03-01T09:08:18;102433.00;;;4.13
37452;BMP280;23314;51.114;6.900;2023-03-01T09:10:43;102436.09;;;4.24
37452;BMP280;23314;51.114;6.900;2023-03-01T09:13:09;102427.84;;;4.34
37452;BMP280;23314;51.114;6.900;2023-03-01T09:15:36;102433.75;;;4.40
37452;BMP280;23314;51.114;6.900;2023-03-01T09:18:02;102428.75;;;4.47
37452;BMP280;23314;51.114;6.900;2023-03-01T09:20:27;102424.88;;;4.53
37452;BMP280;23314;51.114;6.900;2023-03-01T09:22:53;102427.34;;;4.58
37452;BMP280;23314;51.114;6.900;2023-03-01T09:25:18;102426.09;;;4.65
37452;BMP280;23314;51.114;6.900;2023-03-01T09:27:43;102415.31;;;4.70
37452;BMP280;23314;51.114;6.900;2023-03-01T09:30:09;102418.59;;;4.76
37452;BMP280;23314;51.114;6.900;2023-03-01T09:32:34;102409.41;;;4.82
37452;BMP280;23314;51.114;6.900;2023-03-01T09:35:00;102407.66;;;4.86
37452;BMP280;23314;51.114;6.900;2023-03-01T09:37:33;102401.91;;;4.93
37452;BMP280;23314;51.114;6.900;2023-03-01T09:39:58;102406.72;;;4.99
37452;BMP280;23314;51.114;6.900;2023-03-01T09:42:24;102398.56;;;5.04
37452;BMP280;23314;51.114;6.900;2023-03-01T09:45:03;102394.34;;;5.12
37452;BMP280;23314;51.114;6.900;2023-03-01T09:47:30;102388.66;;;5.23
37452;BMP280;23314;51.114;6.900;2023-03-01T09:50:14;102395.78;;;5.31
37452;BMP280;23314;51.114;6.900;2023-03-01T09:53:01;102399.94;;;5.41
37452;BMP280;23314;51.114;6.900;2023-03-01T09:55:32;102388.38;;;5.45
37452;BMP280;23314;51.114;6.900;2023-03-01T10:00:53;102388.13;;;5.59
37452;BMP280;23314;51.114;6.900;2023-03-01T10:03:27;102389.59;;;5.69
37452;BMP280;23314;51.114;6.900;2023-03-01T10:06:04;102383.16;;;5.79
37452;BMP280;23314;51.114;6.900;2023-03-01T10:08:36;102380.88;;;5.90
37452;BMP280;23314;51.114;6.900;2023-03-01T10:11:05;102381.78;;;5.94
37452;BMP280;23314;51.114;6.900;2023-03-01T10:13:50;102384.31;;;6.03
37452;BMP280;23314;51.114;6.900;2023-03-01T10:16:48;102386.13;;;5.98
37452;BMP280;23314;51.114;6.900;2023-03-01T10:19:43;102377.13;;;5.91
37452;BMP280;23314;51.114;6.900;2023-03-01T10:22:29;102384.13;;;5.95
37452;BMP280;23314;51.114;6.900;2023-03-01T10:24:58;102378.59;;;6.01
37452;BMP280;23314;51.114;6.900;2023-03-01T10:27:29;102369.97;;;6.04
37452;BMP280;23314;51.114;6.900;2023-03-01T10:30:07;102355.44;;;5.97
37452;BMP280;23314;51.114;6.900;2023-03-01T10:32:36;102360.47;;;6.03
37452;BMP280;23314;51.114;6.900;2023-03-01T10:35:15;102351.78;;;6.14
37452;BMP280;23314;51.114;6.900;2023-03-01T10:37:56;102348.97;;;6.32
37452;BMP280;23314;51.114;6.900;2023-03-01T10:40:22;102357.16;;;6.39
37452;BMP280;23314;51.114;6.900;2023-03-01T10:42:49;102348.22;;;6.44
37452;BMP280;23314;51.114;6.900;2023-03-01T10:45:31;102354.53;;;6.52
37452;BMP280;23314;51.114;6.900;2023-03-01T10:50:46;102332.34;;;6.69
37452;BMP280;23314;51.114;6.900;2023-03-01T10:53:31;102325.34;;;6.76
37452;BMP280;23314;51.114;6.900;2023-03-01T10:58:28;102331.72;;;6.88
37452;BMP280;23314;51.114;6.900;2023-03-01T11:00:57;102333.84;;;6.95
37452;BMP280;23314;51.114;6.900;2023-03-01T11:06:20;102311.91;;;7.10
37452;BMP280;23314;51.114;6.900;2023-03-01T11:08:48;102309.56;;;7.21
37452;BMP280;23314;51.114;6.900;2023-03-01T11:13:58;102307.00;;;7.53
37452;BMP280;23314;51.114;6.900;2023-03-01T11:16:26;102305.03;;;7.50
37452;BMP280;23314;51.114;6.900;2023-03-01T11:19:03;102297.50;;;7.52
37452;BMP280;23314;51.114;6.900;2023-03-01T11:21:32;102296.84;;;7.55
37452;BMP280;23314;51.114;6.900;2023-03-01T11:24:00;102289.19;;;7.53
37452;BMP280;23314;51.114;6.900;2023-03-01T11:26:27;102272.50;;;7.53
37452;BMP280;23314;51.114;6.900;2023-03-01T11:28:56;102269.94;;;7.56
37452;BMP280;23314;51.114;6.900;2023-03-01T11:31:24;102274.41;;;7.68
37452;BMP280;23314;51.114;6.900;2023-03-01T11:34:11;102281.31;;;7.73
37452;BMP280;23314;51.114;6.900;2023-03-01T11:36:46;102278.22;;;7.71
37452;BMP280;23314;51.114;6.900;2023-03-01T11:39:36;102265.59;;;7.80
37452;BMP280;23314;51.114;6.900;2023-03-01T11:42:11;102264.66;;;7.88
37452;BMP280;23314;51.114;6.900;2023-03-01T11:44:39;102268.16;;;7.93
37452;BMP280;23314;51.114;6.900;2023-03-01T11:47:32;102259.06;;;7.94
37452;BMP280;23314;51.114;6.900;2023-03-01T12:04:05;102253.66;;;8.06
37452;BMP280;23314;51.114;6.900;2023-03-01T12:06:57;102252.28;;;8.12
37452;BMP280;23314;51.114;6.900;2023-03-01T12:12:28;102226.69;;;8.24
37452;BMP280;23314;51.114;6.900;2023-03-01T12:15:08;102217.84;;;8.19
37452;BMP280;23314;51.114;6.900;2023-03-01T12:20:42;102221.41;;;8.43
37452;BMP280;23314;51.114;6.900;2023-03-01T12:23:25;102225.28;;;8.46
37452;BMP280;23314;51.114;6.900;2023-03-01T12:26:01;102220.66;;;8.43
37452;BMP280;23314;51.114;6.900;2023-03-01T12:28:55;102215.97;;;8.56
37452;BMP280;23314;51.114;6.900;2023-03-01T12:31:38;102211.56;;;8.63
37452;BMP280;23314;51.114;6.900;2023-03-01T12:37:14;102208.03;;;8.79
37452;BMP280;23314;51.114;6.900;2023-03-01T12:40:19;102196.69;;;8.82
37452;BMP280;23314;51.114;6.900;2023-03-01T12:43:04;102190.34;;;8.87
37452;BMP280;23314;51.114;6.900;2023-03-01T12:45:57;102179.75;;;8.90
37452;BMP280;23314;51.114;6.900;2023-03-01T12:48:43;102187.16;;;9.01
37452;BMP280;23314;51.114;6.900;2023-03-01T12:51:14;102172.69;;;8.98
37452;BMP280;23314;51.114;6.900;2023-03-01T12:53:46;102185.25;;;9.01
37452;BMP280;23314;51.114;6.900;2023-03-01T12:56:15;102184.91;;;9.03
37452;BMP280;23314;51.114;6.900;2023-03-01T12:58:57;102173.06;;;9.00
37452;BMP280;23314;51.114;6.900;2023-03-01T13:01:45;102175.41;;;9.02
37452;BMP280;23314;51.114;6.900;2023-03-01T13:07:14;102161.53;;;8.92
37452;BMP280;23314;51.114;6.900;2023-03-01T13:10:06;102162.31;;;8.93
37452;BMP280;23314;51.114;6.900;2023-03-01T13:12:50;102162.31;;;8.93
37452;BMP280;23314;51.114;6.900;2023-03-01T13:17:48;102159.13;;;9.07
37452;BMP280;23314;51.114;6.900;2023-03-01T13:21:03;102156.47;;;9.07
37452;BMP280;23314;51.114;6.900;2023-03-01T13:23:25;102152.91;;;8.99
37452;BMP280;23314;51.114;6.900;2023-03-01T13:31:00;102154.41;;;8.96
37452;BMP280;23314;51.114;6.900;2023-03-01T13:35:52;102146.75;;;8.95
37452;BMP280;23314;51.114;6.900;2023-03-01T13:44:23;102139.81;;;8.90
37452;BMP280;23314;51.114;6.900;2023-03-01T13:46:52;102146.06;;;8.98
37452;BMP280;23314;51.114;6.900;2023-03-01T13:49:25;102141.84;;;8.97
37452;BMP280;23314;51.114;6.900;2023-03-01T13:51:51;102137.00;;;9.03
37452;BMP280;23314;51.114;6.900;2023-03-01T13:54:26;102137.47;;;9.08
37452;BMP280;23314;51.114;6.900;2023-03-01T13:56:53;102130.25;;;9.09
37452;BMP280;23314;51.114;6.900;2023-03-01T13:59:21;102116.91;;;9.05
37452;BMP280;23314;51.114;6.900;2023-03-01T14:01:58;102138.88;;;9.02
37452;BMP280;23314;51.114;6.900;2023-03-01T14:04:29;102130.47;;;9.00
37452;BMP280;23314;51.114;6.900;2023-03-01T14:07:16;102116.13;;;9.05
37452;BMP280;23314;51.114;6.900;2023-03-01T14:09:44;102127.97;;;9.07
37452;BMP280;23314;51.114;6.900;2023-03-01T14:12:16;102120.75;;;9.08
37452;BMP280;23314;51.114;6.900;2023-03-01T14:20:12;102108.53;;;9.30
37452;BMP280;23314;51.114;6.900;2023-03-01T14:22:41;102121.19;;;9.37
37452;BMP280;23314;51.114;6.900;2023-03-01T14:28:25;102119.44;;;9.21
37452;BMP280;23314;51.114;6.900;2023-03-01T14:30:52;102104.91;;;9.19
37452;BMP280;23314;51.114;6.900;2023-03-01T14:35:52;102099.19;;;9.17
37452;BMP280;23314;51.114;6.900;2023-03-01T14:38:28;102091.94;;;9.13
37452;BMP280;23314;51.114;6.900;2023-03-01T14:40:57;102087.31;;;9.10
37452;BMP280;23314;51.114;6.900;2023-03-01T14:43:23;102079.66;;;9.09
37452;BMP280;23314;51.114;6.900;2023-03-01T14:45:51;102071.22;;;9.03
37452;BMP280;23314;51.114;6.900;2023-03-01T14:48:17;102062.28;;;8.92
37452;BMP280;23314;51.114;6.900;2023-03-01T14:50:44;102053.13;;;8.89
37452;BMP280;23314;51.114;6.900;2023-03-01T14:53:17;102077.78;;;8.86
37452;BMP280;23314;51.114;6.900;2023-03-01T14:55:46;102065.97;;;8.83
37452;BMP280;23314;51.114;6.900;2023-03-01T14:58:15;102055.75;;;8.86
37452;BMP280;23314;51.114;6.900;2023-03-01T15:00:51;102058.00;;;8.83
37452;BMP280;23314;51.114;6.900;2023-03-01T15:03:43;102056.50;;;8.86
37452;BMP280;23314;51.114;6.900;2023-03-01T15:06:09;102055.41;;;8.91
37452;BMP280;23314;51.114;6.900;2023-03-01T15:08:41;102052.41;;;8.92
37452;BMP280;23314;51.114;6.900;2023-03-01T15:13:44;102053.53;;;8.91
37452;BMP280;23314;51.114;6.900;2023-03-01T15:16:13;102046.50;;;8.79
37452;BMP280;23314;51.114;6.900;2023-03-01T15:18:48;102040.38;;;8.75
37452;BMP280;23314;51.114;6.900;2023-03-01T15:21:35;102041.84;;;8.73
37452;BMP280;23314;51.114;6.900;2023-03-01T15:24:17;102043.72;;;8.72
37452;BMP280;23314;51.114;6.900;2023-03-01T15:26:53;102046.75;;;8.71
37452;BMP280;23314;51.114;6.900;2023-03-01T15:29:22;102040.59;;;8.66
37452;BMP280;23314;51.114;6.900;2023-03-01T15:34:49;102036.25;;;8.58
37452;BMP280;23314;51.114;6.900;2023-03-01T15:37:43;102030.53;;;8.56
37452;BMP280;23314;51.114;6.900;2023-03-01T15:40:29;102033.91;;;8.53
37452;BMP280;23314;51.114;6.900;2023-03-01T15:43:02;102036.91;;;8.51